createdAt,value
2019-02-03T00:02:18.085Z,10.08
2019-02-03T00:04:46.940Z,11.78
2019-02-03T00:07:15.927Z,10.75
2019-02-03T00:09:45.281Z,10.15
2019-02-03T00:12:17.480Z,10.68
2019-02-03T00:14:51.127Z,9.38
2019-02-03T00:17:22.614Z,9.55
2019-02-03T00:19:51.464Z,9.93
2019-02-03T00:22:25.345Z,10.25
2019-02-03T00:25:00.426Z,10.10
2019-02-03T00:27:30.845Z,10.82
2019-02-03T00:30:02.004Z,10.50
2019-02-03T00:32:33.787Z,9.35
2019-02-03T00:35:04.471Z,10.72
2019-02-03T00:37:33.491Z,10.60
2019-02-03T00:40:07.017Z,11.38
2019-02-03T00:42:50.194Z,11.00
2019-02-03T00:45:23.791Z,11.10
2019-02-03T00:47:54.991Z,11.73
2019-02-03T00:50:29.289Z,12.75
2019-02-03T00:53:11.913Z,11.73
2019-02-03T00:55:50.346Z,11.50
2019-02-03T00:58:29.725Z,12.63
2019-02-03T01:01:07.219Z,12.90
2019-02-03T01:03:36.707Z,11.55
2019-02-03T01:06:13.627Z,11.12
2019-02-03T01:08:47.619Z,10.78
2019-02-03T01:11:18.778Z,12.35
2019-02-03T01:13:48.264Z,12.18
2019-02-03T01:16:18.521Z,11.45
2019-02-03T01:18:48.905Z,10.78
2019-02-03T01:21:18.667Z,12.70
2019-02-03T01:23:47.558Z,9.88
2019-02-03T01:26:16.533Z,12.03
2019-02-03T01:28:46.013Z,11.00
2019-02-03T01:31:15.031Z,12.10
2019-02-03T01:33:43.897Z,14.35
2019-02-03T01:36:12.713Z,13.13
2019-02-03T01:38:41.703Z,13.90
2019-02-03T01:41:10.724Z,14.73
2019-02-03T01:43:39.779Z,14.40
2019-02-03T01:46:08.649Z,15.23
2019-02-03T01:48:37.573Z,15.18
2019-02-03T01:51:06.445Z,16.20
2019-02-03T01:53:35.593Z,16.50
2019-02-03T01:56:04.817Z,16.95
2019-02-03T01:58:33.956Z,16.80
2019-02-03T02:01:05.746Z,17.07
2019-02-03T02:03:37.126Z,17.57
2019-02-03T02:06:06.563Z,17.23
2019-02-03T02:08:35.525Z,19.23
2019-02-03T02:11:04.639Z,17.15
2019-02-03T02:13:33.435Z,18.62
2019-02-03T02:16:02.384Z,18.30
2019-02-03T02:18:31.873Z,16.25
2019-02-03T02:21:00.754Z,18.85
2019-02-03T02:23:40.061Z,18.67
2019-02-03T02:26:10.985Z,16.97
2019-02-03T02:28:39.840Z,19.75
2019-02-03T02:31:08.770Z,19.80
2019-02-03T02:33:37.905Z,19.37
2019-02-03T02:36:07.183Z,20.48
2019-02-03T02:38:36.346Z,17.98
2019-02-03T02:41:05.393Z,18.92
2019-02-03T02:43:34.605Z,18.92
2019-02-03T02:46:03.541Z,20.90
2019-02-03T02:48:32.474Z,19.95
2019-02-03T02:51:02.646Z,19.67
2019-02-03T02:53:31.683Z,20.15
2019-02-03T02:56:00.663Z,17.90
2019-02-03T02:58:29.815Z,19.40
2019-02-03T03:00:59.037Z,20.45
2019-02-03T03:03:28.144Z,18.42
2019-02-03T03:05:57.203Z,19.32
2019-02-03T03:08:26.296Z,20.62
2019-02-03T03:10:55.521Z,21.77
2019-02-03T03:13:24.734Z,20.15
2019-02-03T03:16:02.465Z,20.02
2019-02-03T03:18:31.575Z,18.60
2019-02-03T03:21:00.457Z,22.25
2019-02-03T03:23:29.366Z,20.35
2019-02-03T03:25:58.447Z,20.62
2019-02-03T03:28:29.841Z,17.90
2019-02-03T03:31:00.616Z,20.90
2019-02-03T03:33:35.733Z,18.45
2019-02-03T03:36:05.539Z,20.48
2019-02-03T03:38:34.545Z,19.05
2019-02-03T03:41:09.293Z,20.92
2019-02-03T03:43:41.676Z,18.75
2019-02-03T03:46:10.626Z,19.65
2019-02-03T03:48:39.645Z,20.75
2019-02-03T03:51:08.485Z,19.42
2019-02-03T03:53:37.791Z,20.02
2019-02-03T03:56:06.989Z,18.27
2019-02-03T03:58:36.089Z,18.57
2019-02-03T04:01:05.181Z,17.67
2019-02-03T04:03:34.207Z,19.60
2019-02-03T04:06:03.328Z,18.52
2019-02-03T04:08:44.377Z,18.48
2019-02-03T04:11:03.596Z,18.82
2019-02-03T04:13:33.827Z,19.17
2019-02-03T04:16:02.711Z,18.77
2019-02-03T04:18:31.619Z,17.10
2019-02-03T04:21:00.675Z,18.75
2019-02-03T04:23:32.756Z,17.87
2019-02-03T04:26:01.866Z,18.23
2019-02-03T04:28:30.694Z,19.25
2019-02-03T04:30:59.822Z,16.82
2019-02-03T04:33:28.742Z,19.42
2019-02-03T04:35:58.115Z,20.32
2019-02-03T04:38:27.066Z,19.48
2019-02-03T04:40:56.231Z,18.80
2019-02-03T04:43:25.397Z,19.40
2019-02-03T04:45:54.257Z,18.90
2019-02-03T04:48:23.261Z,19.27
2019-02-03T04:50:52.763Z,17.07
2019-02-03T04:53:21.639Z,19.35
2019-02-03T04:55:50.789Z,16.12
2019-02-03T04:58:21.435Z,16.42
2019-02-03T05:00:50.251Z,18.05
2019-02-03T05:03:19.551Z,17.02
2019-02-03T05:05:48.613Z,17.05
2019-02-03T05:08:17.754Z,16.12
2019-02-03T05:10:46.765Z,17.25
2019-02-03T05:13:15.729Z,17.55
2019-02-03T05:15:44.725Z,16.42
2019-02-03T05:18:14.122Z,15.78
2019-02-03T05:20:43.131Z,17.17
2019-02-03T05:23:14.357Z,17.30
2019-02-03T05:25:43.515Z,17.75
2019-02-03T05:28:12.702Z,18.92
2019-02-03T05:30:41.889Z,17.62
2019-02-03T05:33:10.942Z,18.02
2019-02-03T05:35:39.873Z,16.77
2019-02-03T05:38:08.868Z,16.57
2019-02-03T05:40:37.789Z,18.65
2019-02-03T05:43:06.590Z,18.20
2019-02-03T05:45:36.291Z,19.35
2019-02-03T05:48:05.446Z,18.60
2019-02-03T05:50:37.529Z,17.15
2019-02-03T05:53:06.697Z,18.92
2019-02-03T05:55:38.752Z,17.50
2019-02-03T05:58:08.179Z,19.90
2019-02-03T06:00:39.341Z,18.35
2019-02-03T06:03:08.460Z,19.50
2019-02-03T06:05:37.287Z,19.77
2019-02-03T06:08:06.349Z,18.67
2019-02-03T06:10:35.467Z,19.85
2019-02-03T06:13:04.379Z,19.12
2019-02-03T06:15:33.246Z,18.62
2019-02-03T06:18:02.417Z,19.98
2019-02-03T06:20:31.303Z,18.52
2019-02-03T06:23:00.247Z,18.90
2019-02-03T06:25:29.128Z,18.65
2019-02-03T06:27:58.097Z,18.00
2019-02-03T06:31:15.947Z,16.55
2019-02-03T06:33:49.013Z,16.45
2019-02-03T06:36:18.487Z,17.80
2019-02-03T06:38:47.786Z,18.62
2019-02-03T06:41:16.846Z,18.85
2019-02-03T06:43:46.419Z,19.23
2019-02-03T06:46:32.932Z,19.27
2019-02-03T06:49:04.620Z,18.77
2019-02-03T06:51:33.781Z,20.30
2019-02-03T06:54:03.003Z,18.80
2019-02-03T06:56:31.978Z,18.62
2019-02-03T06:59:00.841Z,21.15
2019-02-03T07:01:29.955Z,19.05
2019-02-03T07:03:58.959Z,20.80
2019-02-03T07:06:28.372Z,19.92
2019-02-03T07:08:57.841Z,19.67
2019-02-03T07:11:27.140Z,21.05
2019-02-03T07:13:56.421Z,19.55
2019-02-03T07:16:26.341Z,19.40
2019-02-03T07:18:56.986Z,21.15
2019-02-03T07:21:27.807Z,21.07
2019-02-03T07:23:57.079Z,21.50
2019-02-03T07:26:26.083Z,20.48
2019-02-03T07:28:55.528Z,18.65
2019-02-03T07:31:24.725Z,21.42
2019-02-03T07:33:53.744Z,18.75
2019-02-03T07:36:23.166Z,19.98
2019-02-03T07:38:52.628Z,22.40
2019-02-03T07:41:21.812Z,19.25
2019-02-03T07:43:50.843Z,21.50
2019-02-03T07:46:22.964Z,19.00
2019-02-03T07:48:52.446Z,19.20
2019-02-03T07:51:21.576Z,16.95
2019-02-03T07:54:07.715Z,18.73
2019-02-03T07:56:27.648Z,18.35
2019-02-03T07:58:56.514Z,17.17
2019-02-03T08:01:25.825Z,18.42
2019-02-03T08:03:58.034Z,15.90
2019-02-03T08:06:28.283Z,19.87
2019-02-03T08:08:57.584Z,19.12
2019-02-03T08:11:26.553Z,19.30
2019-02-03T08:13:55.561Z,19.00
2019-02-03T08:16:24.544Z,16.60
2019-02-03T08:18:53.371Z,19.32
2019-02-03T08:21:22.439Z,18.98
2019-02-03T08:23:51.567Z,20.27
2019-02-03T08:26:20.383Z,18.23
2019-02-03T08:28:52.312Z,17.55
2019-02-03T08:31:21.308Z,18.65
2019-02-03T08:33:50.495Z,15.80
2019-02-03T08:36:19.509Z,18.45
2019-02-03T08:38:48.626Z,18.25
2019-02-03T08:41:17.526Z,17.50
2019-02-03T08:43:46.571Z,17.20
2019-02-03T08:46:15.466Z,15.95
2019-02-03T08:48:44.516Z,17.07
2019-02-03T08:51:13.493Z,16.85
2019-02-03T08:53:42.439Z,16.45
2019-02-03T08:56:11.230Z,15.00
2019-02-03T08:58:40.287Z,17.52
2019-02-03T09:01:09.266Z,14.20
2019-02-03T09:03:38.370Z,16.60
2019-02-03T09:06:07.355Z,16.00
2019-02-03T09:08:36.263Z,17.05
2019-02-03T09:11:05.308Z,14.80
2019-02-03T09:13:34.243Z,16.17
2019-02-03T09:16:03.239Z,16.12
2019-02-03T09:18:34.962Z,16.32
2019-02-03T09:21:03.109Z,15.45
2019-02-03T09:23:31.958Z,15.00
2019-02-03T09:26:01.138Z,15.38
2019-02-03T09:28:30.188Z,16.82
2019-02-03T09:30:59.116Z,15.93
2019-02-03T09:33:28.184Z,14.63
2019-02-03T09:35:59.250Z,15.50
2019-02-03T09:38:29.426Z,15.28
2019-02-03T09:41:00.263Z,16.77
2019-02-03T09:43:29.276Z,13.58
2019-02-03T09:45:58.071Z,14.45
2019-02-03T09:48:26.981Z,14.95
2019-02-03T09:50:56.046Z,14.38
2019-02-03T09:53:24.941Z,16.73
2019-02-03T09:55:54.026Z,14.90
2019-02-03T09:58:24.177Z,14.90
2019-02-03T10:00:53.526Z,13.80
2019-02-03T10:03:22.360Z,15.20
2019-02-03T10:05:51.623Z,14.43
2019-02-03T10:08:20.594Z,13.93
2019-02-03T10:10:51.387Z,12.50
2019-02-03T10:13:23.865Z,13.28
2019-02-03T10:15:54.486Z,15.50
2019-02-03T10:18:23.385Z,15.88
2019-02-03T10:20:52.178Z,15.03
2019-02-03T10:23:21.046Z,14.18
2019-02-03T10:25:50.079Z,17.10
2019-02-03T10:28:18.869Z,15.50
2019-02-03T10:30:48.024Z,13.95
2019-02-03T10:33:16.904Z,15.05
2019-02-03T10:35:46.158Z,14.30
2019-02-03T10:38:15.138Z,14.95
2019-02-03T10:40:44.043Z,15.53
2019-02-03T10:43:13.011Z,13.95
2019-02-03T10:45:42.106Z,14.70
2019-02-03T10:48:11.019Z,14.35
2019-02-03T10:50:40.523Z,13.18
2019-02-03T10:53:11.304Z,13.22
2019-02-03T10:55:40.289Z,12.90
2019-02-03T10:58:09.414Z,15.13
2019-02-03T11:00:39.179Z,13.20
2019-02-03T11:03:08.424Z,13.00
2019-02-03T11:05:40.226Z,15.23
2019-02-03T11:08:10.759Z,15.05
2019-02-03T11:10:39.721Z,13.70
2019-02-03T11:13:08.665Z,14.87
2019-02-03T11:15:37.695Z,14.90
2019-02-03T11:18:11.000Z,14.50
2019-02-03T11:20:39.852Z,14.38
2019-02-03T11:23:08.906Z,12.33
2019-02-03T11:25:38.000Z,12.80
2019-02-03T11:28:07.429Z,14.07
2019-02-03T11:30:36.385Z,13.38
2019-02-03T11:33:08.602Z,13.15
2019-02-03T11:35:40.284Z,12.90
2019-02-03T11:38:09.377Z,12.50
2019-02-03T11:41:06.784Z,13.13
2019-02-03T11:43:36.618Z,13.25
2019-02-03T11:46:05.727Z,13.88
2019-02-03T11:48:35.440Z,12.82
2019-02-03T11:51:07.165Z,14.23
2019-02-03T11:53:36.434Z,13.05
2019-02-03T11:56:05.937Z,13.75
2019-02-03T11:58:34.810Z,14.70
2019-02-03T12:01:06.051Z,16.65
2019-02-03T12:03:38.286Z,13.40
2019-02-03T12:06:07.294Z,13.32
2019-02-03T12:08:39.514Z,12.85
2019-02-03T12:11:08.485Z,12.55
2019-02-03T12:13:38.005Z,14.55
2019-02-03T12:16:10.188Z,13.58
2019-02-03T12:18:39.172Z,15.13
2019-02-03T12:21:08.186Z,12.20
2019-02-03T12:23:37.710Z,14.23
2019-02-03T12:26:07.020Z,12.33
2019-02-03T12:28:35.948Z,12.82
2019-02-03T12:31:04.952Z,13.98
2019-02-03T12:33:37.090Z,13.03
2019-02-03T12:36:06.163Z,13.35
2019-02-03T12:38:35.085Z,12.37
2019-02-03T12:41:05.260Z,11.90
2019-02-03T12:43:34.049Z,13.53
2019-02-03T12:46:02.943Z,9.85
2019-02-03T12:48:33.516Z,13.08
2019-02-03T12:51:03.639Z,13.40
2019-02-03T12:53:32.503Z,12.43
2019-02-03T12:56:02.436Z,11.43
2019-02-03T12:58:31.346Z,13.48
2019-02-03T13:01:00.386Z,12.30
2019-02-03T13:03:29.671Z,13.65
2019-02-03T13:05:58.681Z,14.03
2019-02-03T13:08:27.631Z,13.22
2019-02-03T13:10:56.678Z,13.78
2019-02-03T13:13:25.857Z,13.60
2019-02-03T13:15:55.015Z,11.12
2019-02-03T13:18:23.998Z,12.10
2019-02-03T13:20:53.022Z,14.93
2019-02-03T13:23:22.515Z,12.33
2019-02-03T13:25:51.746Z,12.53
2019-02-03T13:28:20.797Z,12.95
2019-02-03T13:30:53.193Z,11.35
2019-02-03T13:33:22.165Z,12.23
2019-02-03T13:35:51.226Z,12.00
2019-02-03T13:38:20.216Z,12.35
2019-02-03T13:40:52.766Z,13.08
2019-02-03T13:43:23.245Z,11.00
2019-02-03T13:45:52.388Z,11.57
2019-02-03T13:48:21.291Z,10.80
2019-02-03T13:50:50.208Z,10.32
2019-02-03T13:53:20.521Z,11.48
2019-02-03T13:55:49.383Z,12.53
2019-02-03T13:58:18.291Z,11.63
2019-02-03T14:00:47.295Z,10.85
2019-02-03T14:03:16.299Z,10.60
2019-02-03T14:05:45.403Z,10.82
2019-02-03T14:08:14.407Z,10.93
2019-02-03T14:10:43.630Z,10.60
2019-02-03T14:13:12.622Z,9.45
2019-02-03T14:15:41.557Z,8.68
2019-02-03T14:18:10.584Z,8.85
2019-02-03T14:20:39.560Z,11.43
2019-02-03T14:23:08.476Z,11.15
2019-02-03T14:25:37.354Z,9.28
2019-02-03T14:28:06.703Z,10.38
2019-02-03T14:30:40.853Z,10.58
2019-02-03T14:33:09.129Z,9.40
2019-02-03T14:35:38.177Z,9.15
2019-02-03T14:38:07.836Z,9.98
2019-02-03T14:40:36.978Z,9.43
2019-02-03T14:43:06.034Z,9.93
2019-02-03T14:45:35.268Z,10.10
2019-02-03T14:48:04.694Z,8.80
2019-02-03T14:50:33.609Z,8.30
2019-02-03T14:53:03.864Z,10.03
2019-02-03T14:55:35.643Z,11.25
2019-02-03T14:58:05.451Z,9.30
2019-02-03T15:00:36.605Z,9.10
2019-02-03T15:03:13.833Z,9.18
2019-02-03T15:05:42.834Z,8.35
2019-02-03T15:08:11.819Z,9.50
2019-02-03T15:10:40.813Z,9.10
2019-02-03T15:13:15.880Z,8.50
2019-02-03T15:15:46.385Z,7.70
2019-02-03T15:18:15.372Z,7.45
2019-02-03T15:20:44.673Z,7.85
2019-02-03T15:23:13.634Z,7.70
2019-02-03T15:25:48.167Z,8.23
2019-02-03T15:28:17.715Z,7.80
2019-02-03T15:30:47.481Z,9.58
2019-02-03T15:33:16.549Z,9.15
2019-02-03T15:35:45.664Z,8.98
2019-02-03T15:38:18.413Z,8.03
2019-02-03T15:40:47.371Z,9.20
2019-02-03T15:43:25.189Z,7.37
2019-02-03T15:45:50.637Z,7.75
2019-02-03T15:48:19.935Z,7.45
2019-02-03T15:50:49.049Z,10.00
2019-02-03T15:53:18.331Z,8.50
2019-02-03T15:55:47.719Z,9.18
2019-02-03T15:58:17.363Z,8.30
2019-02-03T16:00:49.197Z,9.25
2019-02-03T16:03:18.233Z,8.28
2019-02-03T16:05:47.149Z,9.35
2019-02-03T16:08:16.108Z,8.18
2019-02-03T16:10:44.891Z,9.45
2019-02-03T16:13:13.788Z,8.05
2019-02-03T16:15:46.038Z,8.35
2019-02-03T16:18:28.156Z,8.48
2019-02-03T16:20:57.673Z,8.60
2019-02-03T16:23:26.681Z,7.00
2019-02-03T16:25:57.294Z,9.28
2019-02-03T16:28:26.197Z,8.73
2019-02-03T16:30:58.547Z,9.15
2019-02-03T16:33:28.417Z,9.23
2019-02-03T16:36:03.059Z,7.65
2019-02-03T16:38:34.313Z,8.80
2019-02-03T16:41:03.901Z,8.28
2019-02-03T16:43:35.304Z,7.85
2019-02-03T16:46:05.513Z,8.13
2019-02-03T16:48:38.015Z,8.45
2019-02-03T16:51:09.525Z,8.25
2019-02-03T16:53:39.083Z,8.30
2019-02-03T16:56:08.481Z,9.15
2019-02-03T16:58:37.718Z,9.23
2019-02-03T17:01:10.349Z,7.72
2019-02-03T17:03:39.314Z,8.18
2019-02-03T17:06:09.441Z,9.13
2019-02-03T17:08:40.342Z,9.40
2019-02-03T17:11:09.612Z,8.68
2019-02-03T17:13:38.628Z,7.97
2019-02-03T17:16:08.345Z,8.15
2019-02-03T17:18:37.690Z,7.85
2019-02-03T17:21:06.724Z,7.97
2019-02-03T17:23:35.664Z,7.75
2019-02-03T17:26:08.281Z,9.10
2019-02-03T17:28:37.308Z,8.35
2019-02-03T17:31:06.732Z,7.60
2019-02-03T17:33:38.878Z,8.30
2019-02-03T17:36:09.008Z,8.75
2019-02-03T17:38:45.839Z,9.00
2019-02-03T17:41:15.070Z,8.95
2019-02-03T17:43:44.164Z,7.95
2019-02-03T17:46:13.364Z,8.55
2019-02-03T17:48:42.220Z,8.20
2019-02-03T17:51:11.396Z,7.80
2019-02-03T17:53:40.838Z,9.70
2019-02-03T17:56:10.083Z,6.65
2019-02-03T17:58:39.811Z,7.80
2019-02-03T18:01:11.869Z,8.70
2019-02-03T18:03:43.226Z,7.70
2019-02-03T18:06:11.844Z,7.75
2019-02-03T18:08:40.948Z,8.65
2019-02-03T18:11:10.052Z,7.67
2019-02-03T18:13:52.376Z,8.88
2019-02-03T18:16:21.612Z,8.40
2019-02-03T18:18:50.518Z,7.87
2019-02-03T18:21:19.759Z,7.95
2019-02-03T18:23:49.515Z,8.85
2019-02-03T18:26:18.610Z,8.50
2019-02-03T18:28:47.947Z,7.87
2019-02-03T18:31:29.024Z,7.95
2019-02-03T18:34:01.063Z,8.05
2019-02-03T18:36:29.943Z,7.62
2019-02-03T18:38:59.279Z,8.35
2019-02-03T18:41:28.322Z,9.05
2019-02-03T18:43:57.557Z,7.67
2019-02-03T18:46:26.441Z,6.47
2019-02-03T18:48:55.345Z,8.13
2019-02-03T18:51:24.299Z,8.35
2019-02-03T18:53:53.807Z,8.33
2019-02-03T18:56:23.209Z,9.40
2019-02-03T18:58:53.201Z,8.35
2019-02-03T19:01:22.270Z,9.00
2019-02-03T19:03:51.256Z,9.93
2019-02-03T19:06:20.150Z,9.25
2019-02-03T19:08:49.346Z,9.05
2019-02-03T19:11:18.344Z,8.28
2019-02-03T19:13:47.307Z,7.30
2019-02-03T19:16:18.662Z,7.17
2019-02-03T19:18:58.023Z,8.43
2019-02-03T19:21:27.562Z,8.65
2019-02-03T19:23:56.646Z,7.70
2019-02-03T19:26:29.396Z,8.58
2019-02-03T19:28:58.357Z,7.72
2019-02-03T19:31:27.235Z,7.20
2019-02-03T19:33:56.435Z,8.25
2019-02-03T19:36:25.920Z,7.87
2019-02-03T19:38:55.256Z,6.65
2019-02-03T19:41:24.582Z,7.17
2019-02-03T19:43:53.935Z,6.60
2019-02-03T19:46:26.088Z,7.30
2019-02-03T19:48:55.453Z,5.85
2019-02-03T19:51:24.684Z,6.10
2019-02-03T19:53:59.081Z,6.70
2019-02-03T19:56:33.265Z,7.50
2019-02-03T19:59:06.944Z,6.35
2019-02-03T20:01:36.073Z,6.95
2019-02-03T20:04:11.506Z,7.22
2019-02-03T20:06:43.771Z,8.35
2019-02-03T20:09:12.900Z,6.80
2019-02-03T20:11:45.902Z,8.25
2019-02-03T20:14:14.896Z,6.85
2019-02-03T20:16:44.491Z,9.05
2019-02-03T20:19:14.215Z,7.45
2019-02-03T20:21:43.165Z,7.72
2019-02-03T20:24:16.745Z,6.95
2019-02-03T20:26:54.890Z,6.03
2019-02-03T20:29:30.276Z,7.00
2019-02-03T20:32:03.745Z,6.97
2019-02-03T20:34:33.495Z,5.87
2019-02-03T20:37:03.716Z,5.78
2019-02-03T20:39:41.996Z,5.55
2019-02-03T20:42:11.408Z,5.55
2019-02-03T20:44:42.082Z,5.62
2019-02-03T20:47:13.988Z,4.97
2019-02-03T20:49:44.454Z,6.40
2019-02-03T20:52:15.805Z,5.92
2019-02-03T20:54:45.057Z,4.85
2019-02-03T20:57:14.455Z,4.80
2019-02-03T20:59:43.415Z,4.53
2019-02-03T21:02:12.910Z,4.62
2019-02-03T21:04:41.816Z,4.97
2019-02-03T21:07:10.731Z,3.52
2019-02-03T21:09:39.636Z,3.92
2019-02-03T21:12:08.476Z,4.90
2019-02-03T21:14:37.501Z,4.75
2019-02-03T21:17:06.646Z,4.90
2019-02-03T21:19:35.973Z,4.90
2019-02-03T21:22:05.150Z,3.70
2019-02-03T21:24:34.068Z,4.08
2019-02-03T21:27:03.172Z,4.20
2019-02-03T21:29:32.539Z,4.22
2019-02-03T21:32:01.542Z,5.08
2019-02-03T21:34:33.128Z,4.17
2019-02-03T21:37:02.161Z,4.67
2019-02-03T21:39:31.078Z,4.55
2019-02-03T21:42:00.046Z,4.00
2019-02-03T21:44:29.146Z,4.30
2019-02-03T21:46:58.076Z,4.60
2019-02-03T21:49:26.960Z,5.75
2019-02-03T21:51:56.004Z,3.98
2019-02-03T21:54:24.837Z,3.58
2019-02-03T21:56:53.759Z,5.22
2019-02-03T21:59:22.584Z,4.87
2019-02-03T22:01:51.610Z,4.80
2019-02-03T22:04:20.538Z,4.67
2019-02-03T22:06:49.415Z,4.90
2019-02-03T22:09:18.362Z,4.97
2019-02-03T22:11:47.230Z,4.08
2019-02-03T22:14:16.055Z,4.40
2019-02-03T22:16:44.915Z,4.50
2019-02-03T22:19:13.804Z,4.85
2019-02-03T22:21:42.742Z,4.12
2019-02-03T22:24:11.608Z,5.47
2019-02-03T22:26:40.896Z,3.83
2019-02-03T22:29:09.923Z,4.95
2019-02-03T22:31:38.720Z,4.50
2019-02-03T22:34:07.502Z,4.53
2019-02-03T22:36:36.496Z,4.08
2019-02-03T22:39:08.250Z,4.00
2019-02-03T22:41:37.370Z,4.47
2019-02-03T22:44:06.295Z,5.53
2019-02-03T22:46:35.310Z,4.90
2019-02-03T22:49:06.492Z,4.67
2019-02-03T22:51:35.254Z,3.67
2019-02-03T22:54:04.470Z,3.83
2019-02-03T22:56:33.480Z,5.78
2019-02-03T22:59:02.374Z,4.33
2019-02-03T23:01:39.181Z,4.25
2019-02-03T23:04:17.216Z,4.03
2019-02-03T23:06:46.407Z,3.70
2019-02-03T23:09:26.215Z,3.42
2019-02-03T23:11:58.746Z,3.67
2019-02-03T23:14:27.889Z,3.42
2019-02-03T23:16:57.282Z,3.65
2019-02-03T23:19:26.653Z,3.98
2019-02-03T23:21:57.923Z,4.05
2019-02-03T23:24:27.403Z,4.97
2019-02-03T23:26:56.310Z,5.33
2019-02-03T23:29:28.561Z,5.42
2019-02-03T23:31:57.738Z,4.22
2019-02-03T23:34:26.737Z,5.60
2019-02-03T23:36:55.672Z,4.90
2019-02-03T23:39:29.814Z,4.62
2019-02-03T23:41:58.691Z,3.80
2019-02-03T23:44:28.108Z,4.28
2019-02-03T23:46:57.417Z,4.60
2019-02-03T23:49:26.313Z,4.28
2019-02-03T23:51:57.495Z,4.70
2019-02-03T23:54:26.376Z,4.00
2019-02-03T23:56:55.267Z,4.00
2019-02-03T23:59:24.167Z,3.67
